createdAt,value
2022-11-21T00:00:42.580Z,7.87
2022-11-21T00:03:10.714Z,6.33
2022-11-21T00:05:42.978Z,5.73
2022-11-21T00:08:11.483Z,8.47
2022-11-21T00:10:39.507Z,9.30
2022-11-21T00:13:07.459Z,5.37
2022-11-21T00:15:35.784Z,11.27
2022-11-21T00:18:03.842Z,8.50
2022-11-21T00:20:31.103Z,8.47
2022-11-21T00:22:57.697Z,6.03
2022-11-21T00:25:24.397Z,7.93
2022-11-21T00:27:52.740Z,6.87
2022-11-21T00:30:19.433Z,13.13
2022-11-21T00:32:46.039Z,8.87
2022-11-21T00:35:13.326Z,11.73
2022-11-21T00:37:40.099Z,10.73
2022-11-21T00:40:07.260Z,6.60
2022-11-21T00:42:33.902Z,5.23
2022-11-21T00:45:00.594Z,10.63
2022-11-21T00:47:27.182Z,7.07
2022-11-21T00:49:53.755Z,7.30
2022-11-21T00:52:20.328Z,11.17
2022-11-21T00:54:46.904Z,10.97
2022-11-21T00:57:13.555Z,7.73
2022-11-21T00:59:40.187Z,9.73
2022-11-21T01:02:07.017Z,10.30
2022-11-21T01:04:35.202Z,9.60
2022-11-21T01:07:01.875Z,13.90
2022-11-21T01:09:28.785Z,9.80
2022-11-21T01:11:56.594Z,12.23
2022-11-21T01:14:23.537Z,10.33
2022-11-21T01:16:50.889Z,12.50
2022-11-21T01:19:17.746Z,10.07
2022-11-21T01:21:44.370Z,10.07
2022-11-21T01:24:12.341Z,11.13
2022-11-21T01:26:39.257Z,11.93
2022-11-21T01:29:07.272Z,10.43
2022-11-21T01:31:33.970Z,10.00
2022-11-21T01:34:00.898Z,10.73
2022-11-21T01:36:32.825Z,15.40
2022-11-21T01:39:01.745Z,8.37
2022-11-21T01:41:33.610Z,10.00
2022-11-21T01:44:13.828Z,8.20
2022-11-21T01:46:40.426Z,14.80
2022-11-21T01:49:11.080Z,10.70
2022-11-21T01:51:43.249Z,11.07
2022-11-21T01:54:18.532Z,10.00
2022-11-21T01:57:04.712Z,12.93
2022-11-21T01:59:39.947Z,9.77
2022-11-21T02:02:10.781Z,8.87
2022-11-21T02:04:39.040Z,14.97
2022-11-21T02:07:07.058Z,13.63
2022-11-21T02:09:37.407Z,11.23
2022-11-21T02:12:21.723Z,6.13
2022-11-21T02:14:48.539Z,13.87
2022-11-21T02:17:18.958Z,10.83
2022-11-21T02:20:01.700Z,10.70
2022-11-21T02:22:39.118Z,8.83
2022-11-21T02:25:11.757Z,10.27
2022-11-21T02:27:39.157Z,15.60
2022-11-21T02:30:08.571Z,11.53
2022-11-21T02:32:48.442Z,11.13
2022-11-21T02:35:17.561Z,10.10
2022-11-21T02:37:47.399Z,12.67
2022-11-21T02:40:25.520Z,12.53
2022-11-21T02:43:13.164Z,12.03
2022-11-21T02:45:42.511Z,8.83
2022-11-21T02:48:09.928Z,9.63
2022-11-21T02:50:39.548Z,11.00
2022-11-21T02:53:08.976Z,10.40
2022-11-21T02:55:35.612Z,10.03
2022-11-21T02:58:05.190Z,9.77
2022-11-21T03:00:33.903Z,12.23
2022-11-21T03:03:00.526Z,10.13
2022-11-21T03:05:27.643Z,7.63
2022-11-21T03:07:54.300Z,10.00
2022-11-21T03:10:20.905Z,9.33
2022-11-21T03:12:47.601Z,8.97
2022-11-21T03:15:16.258Z,7.30
2022-11-21T03:17:43.528Z,6.37
2022-11-21T03:20:10.691Z,7.37
2022-11-21T03:22:37.310Z,7.90
2022-11-21T03:25:04.177Z,8.87
2022-11-21T03:27:31.010Z,6.63
2022-11-21T03:29:57.614Z,6.47
2022-11-21T03:32:24.274Z,8.00
2022-11-21T03:34:50.854Z,6.77
2022-11-21T03:37:17.462Z,7.83
2022-11-21T03:39:44.053Z,7.33
2022-11-21T03:42:10.672Z,7.23
2022-11-21T03:44:37.251Z,6.07
2022-11-21T03:47:03.937Z,5.03
2022-11-21T03:49:30.519Z,6.87
2022-11-21T03:51:57.100Z,6.93
2022-11-21T03:54:23.689Z,8.03
2022-11-21T03:56:50.251Z,6.07
2022-11-21T03:59:16.869Z,4.83
2022-11-21T04:01:43.502Z,8.57
2022-11-21T04:04:10.150Z,5.53
2022-11-21T04:06:36.734Z,6.40
2022-11-21T04:09:03.691Z,9.13
2022-11-21T04:11:30.255Z,7.70
2022-11-21T04:13:56.874Z,4.70
2022-11-21T04:16:23.455Z,6.83
2022-11-21T04:18:50.661Z,5.20
2022-11-21T04:21:17.332Z,5.47
2022-11-21T04:23:44.086Z,5.90
2022-11-21T04:26:11.119Z,4.87
2022-11-21T04:28:38.263Z,8.07
2022-11-21T04:31:10.332Z,7.57
2022-11-21T04:33:39.257Z,6.53
2022-11-21T04:36:08.224Z,4.60
2022-11-21T04:38:34.834Z,5.47
2022-11-21T04:41:01.448Z,4.90
2022-11-21T04:43:28.079Z,6.40
2022-11-21T04:45:54.665Z,6.53
2022-11-21T04:48:21.279Z,5.60
2022-11-21T04:50:47.897Z,8.03
2022-11-21T04:53:14.540Z,5.87
2022-11-21T04:55:41.126Z,4.90
2022-11-21T04:58:07.723Z,3.77
2022-11-21T05:00:34.775Z,6.30
2022-11-21T05:03:05.828Z,7.83
2022-11-21T05:05:33.357Z,7.03
2022-11-21T05:08:00.578Z,8.93
2022-11-21T05:10:27.266Z,8.67
2022-11-21T05:13:19.080Z,7.93
2022-11-21T05:15:46.228Z,6.73
2022-11-21T05:18:13.126Z,8.37
2022-11-21T05:20:39.793Z,7.20
2022-11-21T05:23:06.650Z,8.83
2022-11-21T05:25:33.393Z,8.27
2022-11-21T05:28:00.020Z,7.43
2022-11-21T05:30:26.672Z,7.60
2022-11-21T05:32:53.385Z,8.90
2022-11-21T05:35:20.072Z,6.57
2022-11-21T05:37:46.802Z,4.20
2022-11-21T05:40:13.493Z,5.93
2022-11-21T05:43:01.114Z,9.27
2022-11-21T05:45:27.746Z,5.30
2022-11-21T05:47:54.315Z,5.80
2022-11-21T05:50:20.914Z,4.83
2022-11-21T05:52:47.527Z,7.07
2022-11-21T05:55:14.150Z,6.63
2022-11-21T05:57:41.294Z,5.00
2022-11-21T06:00:08.719Z,6.57
2022-11-21T06:02:53.659Z,7.10
2022-11-21T06:05:20.484Z,4.47
2022-11-21T06:07:47.137Z,5.63
2022-11-21T06:10:13.767Z,6.33
2022-11-21T06:12:40.332Z,5.00
2022-11-21T06:15:07.532Z,5.57
2022-11-21T06:17:34.097Z,6.43
2022-11-21T06:20:00.811Z,4.80
2022-11-21T06:22:27.498Z,5.17
2022-11-21T06:24:54.109Z,4.83
2022-11-21T06:27:20.759Z,2.97
2022-11-21T06:29:47.346Z,5.17
2022-11-21T06:32:14.059Z,5.83
2022-11-21T06:34:40.753Z,6.10
2022-11-21T06:37:07.520Z,6.10
2022-11-21T06:39:34.175Z,5.40
2022-11-21T06:42:01.862Z,9.20
2022-11-21T06:44:28.837Z,6.37
2022-11-21T06:46:55.675Z,5.50
2022-11-21T06:49:22.363Z,5.20
2022-11-21T06:51:49.027Z,4.10
2022-11-21T06:54:17.026Z,5.80
2022-11-21T06:56:44.196Z,6.20
2022-11-21T06:59:10.935Z,7.87
2022-11-21T07:01:37.730Z,7.03
2022-11-21T07:04:04.718Z,4.70
2022-11-21T07:06:31.360Z,7.37
2022-11-21T07:09:30.914Z,5.13
2022-11-21T07:11:44.613Z,5.70
2022-11-21T07:14:11.312Z,6.43
2022-11-21T07:16:38.155Z,6.67
2022-11-21T07:19:04.791Z,7.57
2022-11-21T07:21:31.350Z,4.27
2022-11-21T07:23:57.936Z,7.20
2022-11-21T07:26:24.522Z,6.43
2022-11-21T07:28:51.110Z,5.03
2022-11-21T07:31:17.745Z,4.90
2022-11-21T07:33:44.422Z,3.47
2022-11-21T07:36:12.180Z,5.60
2022-11-21T07:38:38.881Z,4.63
2022-11-21T07:41:05.463Z,4.97
2022-11-21T07:43:32.112Z,6.17
2022-11-21T07:45:58.727Z,5.90
2022-11-21T07:48:25.358Z,4.93
2022-11-21T07:50:51.996Z,4.30
2022-11-21T07:53:18.642Z,6.00
2022-11-21T07:55:45.281Z,5.07
2022-11-21T07:58:13.448Z,3.20
2022-11-21T08:00:44.507Z,4.03
2022-11-21T08:03:12.938Z,5.10
2022-11-21T08:05:41.727Z,6.03
2022-11-21T08:08:09.709Z,4.13
2022-11-21T08:10:41.148Z,5.27
2022-11-21T08:13:07.773Z,6.93
2022-11-21T08:15:34.380Z,6.13
2022-11-21T08:18:11.927Z,4.73
2022-11-21T08:20:38.981Z,4.23
2022-11-21T08:23:06.678Z,4.00
2022-11-21T08:25:43.298Z,6.10
2022-11-21T08:28:11.751Z,4.40
2022-11-21T08:30:40.216Z,6.77
2022-11-21T08:33:07.302Z,7.83
2022-11-21T08:35:37.102Z,6.80
2022-11-21T08:38:04.263Z,5.07
2022-11-21T08:40:31.919Z,4.37
2022-11-21T08:43:00.104Z,5.50
2022-11-21T08:45:26.812Z,4.77
2022-11-21T08:47:54.351Z,5.03
2022-11-21T08:50:22.845Z,6.30
2022-11-21T08:52:49.508Z,3.93
2022-11-21T08:55:16.155Z,4.80
2022-11-21T08:57:43.090Z,5.37
2022-11-21T09:00:14.490Z,5.10
2022-11-21T09:02:41.155Z,4.63
2022-11-21T09:05:08.591Z,4.67
2022-11-21T09:07:35.813Z,4.13
2022-11-21T09:10:02.477Z,4.63
2022-11-21T09:12:29.102Z,3.67
2022-11-21T09:15:14.071Z,4.83
2022-11-21T09:17:59.118Z,6.07
2022-11-21T09:20:26.211Z,3.80
2022-11-21T09:22:53.141Z,4.27
2022-11-21T09:25:19.981Z,6.23
2022-11-21T09:27:47.026Z,5.03
2022-11-21T09:30:14.154Z,4.73
2022-11-21T09:32:41.421Z,3.23
2022-11-21T09:35:08.858Z,2.93
2022-11-21T09:37:38.375Z,5.20
2022-11-21T09:40:05.952Z,4.63
2022-11-21T09:42:44.607Z,5.03
2022-11-21T09:45:18.307Z,4.23
2022-11-21T09:47:48.735Z,5.03
2022-11-21T09:50:15.283Z,4.37
2022-11-21T09:52:49.618Z,3.60
2022-11-21T09:55:34.904Z,4.33
2022-11-21T09:58:11.310Z,5.73
2022-11-21T10:00:37.981Z,3.83
2022-11-21T10:03:04.710Z,3.93
2022-11-21T10:05:43.798Z,3.90
2022-11-21T10:08:24.937Z,2.30
2022-11-21T10:10:58.462Z,3.47
2022-11-21T10:13:40.310Z,5.87
2022-11-21T10:16:13.126Z,4.07
2022-11-21T10:18:59.571Z,3.97
2022-11-21T10:21:56.500Z,4.50
2022-11-21T10:24:33.113Z,5.20
2022-11-21T10:27:13.908Z,4.63
2022-11-21T10:29:53.162Z,2.57
2022-11-21T10:32:46.011Z,5.03
2022-11-21T10:35:17.789Z,5.53
2022-11-21T10:37:52.408Z,6.10
2022-11-21T10:40:40.004Z,5.40
2022-11-21T10:43:37.484Z,4.83
2022-11-21T10:46:04.095Z,4.77
2022-11-21T10:48:30.668Z,5.00
2022-11-21T10:51:06.141Z,3.77
2022-11-21T10:53:51.780Z,3.43
2022-11-21T10:56:21.819Z,6.03
2022-11-21T10:58:51.092Z,2.80
2022-11-21T11:01:21.983Z,5.57
2022-11-21T11:06:57.467Z,6.07
2022-11-21T11:09:34.526Z,3.83
2022-11-21T11:12:23.269Z,5.87
2022-11-21T11:14:54.822Z,4.37
2022-11-21T11:17:33.500Z,6.10
2022-11-21T11:20:26.224Z,4.87
2022-11-21T11:22:52.814Z,5.57
2022-11-21T11:25:19.378Z,4.30
2022-11-21T11:27:45.970Z,4.20
2022-11-21T11:30:16.547Z,5.23
2022-11-21T11:32:43.402Z,5.40
2022-11-21T11:35:12.883Z,5.57
2022-11-21T11:37:41.910Z,3.37
2022-11-21T11:40:30.290Z,4.37
2022-11-21T11:43:30.602Z,6.40
2022-11-21T11:46:24.704Z,2.97
2022-11-21T11:49:17.911Z,4.73
2022-11-21T11:51:55.121Z,3.87
2022-11-21T11:54:45.332Z,7.03
2022-11-21T11:57:13.854Z,5.77
2022-11-21T11:59:48.331Z,4.20
2022-11-21T12:02:25.352Z,5.53
2022-11-21T12:05:05.429Z,4.10
2022-11-21T12:10:33.759Z,5.93
2022-11-21T12:13:11.250Z,5.37
2022-11-21T12:15:50.251Z,4.30
2022-11-21T12:18:19.644Z,10.43
2022-11-21T12:21:15.274Z,5.40
2022-11-21T12:23:54.959Z,7.73
2022-11-21T12:26:43.618Z,3.70
2022-11-21T12:29:20.355Z,5.57
2022-11-21T12:32:05.594Z,7.13
2022-11-21T12:34:59.989Z,5.33
2022-11-21T12:37:50.864Z,3.40
2022-11-21T12:40:54.942Z,3.37
2022-11-21T12:43:51.843Z,5.93
2022-11-21T12:46:27.964Z,3.57
2022-11-21T12:49:16.435Z,5.53
2022-11-21T12:52:07.105Z,3.83
2022-11-21T12:54:49.546Z,7.60
2022-11-21T12:57:18.513Z,2.27
2022-11-21T12:59:47.719Z,3.93
2022-11-21T13:02:20.182Z,4.77
2022-11-21T13:04:51.151Z,6.50
2022-11-21T13:07:19.444Z,5.47
2022-11-21T13:09:50.974Z,5.00
2022-11-21T13:12:32.220Z,5.63
2022-11-21T13:15:13.954Z,5.47
2022-11-21T13:17:56.128Z,6.50
2022-11-21T13:20:23.671Z,7.33
2022-11-21T13:22:51.395Z,6.03
2022-11-21T13:25:33.073Z,4.30
2022-11-21T13:28:12.011Z,5.17
2022-11-21T13:30:52.179Z,6.97
2022-11-21T13:33:39.530Z,3.70
2022-11-21T13:36:32.199Z,5.37
2022-11-21T13:38:58.821Z,8.60
2022-11-21T13:41:53.255Z,6.07
2022-11-21T13:44:34.379Z,5.50
2022-11-21T13:47:05.072Z,8.47
2022-11-21T13:49:36.772Z,5.57
2022-11-21T13:52:32.701Z,6.43
2022-11-21T13:55:28.274Z,12.50
2022-11-21T13:58:11.868Z,16.30
2022-11-21T14:01:03.349Z,14.43
2022-11-21T14:04:06.172Z,5.43
2022-11-21T14:06:43.300Z,8.27
2022-11-21T14:09:12.992Z,7.43
2022-11-21T14:12:02.075Z,6.43
2022-11-21T14:14:51.110Z,4.13
2022-11-21T14:17:34.187Z,4.43
2022-11-21T14:20:13.628Z,7.53
2022-11-21T14:22:54.258Z,7.50
2022-11-21T14:25:25.163Z,4.33
2022-11-21T14:27:54.770Z,9.63
2022-11-21T14:30:39.560Z,3.77
2022-11-21T14:33:24.571Z,6.17
2022-11-21T14:35:59.280Z,6.53
2022-11-21T14:38:27.523Z,5.77
2022-11-21T14:41:23.294Z,5.60
2022-11-21T14:44:03.348Z,5.00
2022-11-21T14:46:38.788Z,4.60
2022-11-21T14:49:17.306Z,5.50
2022-11-21T14:52:06.252Z,8.07
2022-11-21T14:54:39.549Z,4.47
2022-11-21T14:57:07.852Z,4.77
2022-11-21T14:59:44.386Z,9.77
2022-11-21T15:02:22.568Z,5.47
2022-11-21T15:04:51.034Z,6.20
2022-11-21T15:07:31.587Z,6.57
2022-11-21T15:10:33.777Z,6.77
2022-11-21T15:12:55.698Z,6.67
2022-11-21T15:15:28.655Z,10.33
2022-11-21T15:20:54.208Z,6.23
2022-11-21T15:23:35.795Z,6.00
2022-11-21T15:26:02.955Z,4.53
2022-11-21T15:28:30.621Z,7.70
2022-11-21T15:31:16.669Z,6.13
2022-11-21T15:34:27.671Z,4.90
2022-11-21T15:37:03.500Z,4.27
2022-11-21T15:39:30.428Z,7.57
2022-11-21T15:42:32.015Z,8.17
2022-11-21T15:45:23.846Z,7.60
2022-11-21T15:47:50.512Z,7.53
2022-11-21T15:50:17.139Z,10.47
2022-11-21T15:52:48.963Z,9.17
2022-11-21T15:55:21.439Z,5.83
2022-11-21T15:57:14.938Z,10.93
2022-11-21T15:57:48.332Z,10.47
2022-11-21T16:00:15.477Z,6.80
2022-11-21T16:02:42.095Z,6.03
2022-11-21T16:05:14.091Z,5.83
2022-11-21T16:07:41.908Z,6.30
2022-11-21T16:10:17.175Z,4.90
2022-11-21T16:12:49.377Z,8.93
2022-11-21T16:15:16.022Z,7.23
2022-11-21T16:17:42.614Z,7.97
2022-11-21T16:20:09.547Z,7.00
2022-11-21T16:22:36.134Z,8.50
2022-11-21T16:25:02.838Z,6.67
2022-11-21T16:27:29.610Z,8.07
2022-11-21T16:29:56.209Z,9.70
2022-11-21T16:32:25.286Z,7.03
2022-11-21T16:34:52.068Z,10.27
2022-11-21T16:37:18.674Z,7.90
2022-11-21T16:39:51.782Z,5.80
2022-11-21T16:42:19.559Z,10.37
2022-11-21T16:44:46.199Z,10.40
2022-11-21T16:47:14.244Z,6.07
2022-11-21T16:49:48.183Z,7.17
2022-11-21T16:52:15.865Z,5.93
2022-11-21T16:54:42.494Z,13.30
2022-11-21T16:57:09.470Z,7.77
2022-11-21T16:59:36.346Z,7.03
2022-11-21T17:02:03.013Z,10.53
2022-11-21T17:04:29.980Z,9.43
2022-11-21T17:06:57.075Z,6.33
2022-11-21T17:09:23.656Z,6.87
2022-11-21T17:11:50.374Z,6.17
2022-11-21T17:14:17.006Z,8.57
2022-11-21T17:16:43.663Z,7.93
2022-11-21T17:19:12.378Z,10.60
2022-11-21T17:21:39.197Z,7.80
2022-11-21T17:24:06.041Z,6.63
2022-11-21T17:26:36.668Z,5.80
2022-11-21T17:29:04.931Z,6.70
2022-11-21T17:31:32.086Z,8.47
2022-11-21T17:34:00.823Z,8.63
2022-11-21T17:36:29.729Z,8.50
2022-11-21T17:38:56.703Z,8.83
2022-11-21T17:41:24.882Z,7.63
2022-11-21T17:43:58.302Z,10.87
2022-11-21T17:46:26.082Z,7.70
2022-11-21T17:48:58.463Z,9.03
2022-11-21T17:51:34.299Z,8.50
2022-11-21T17:54:01.922Z,7.83
2022-11-21T17:56:30.792Z,8.93
2022-11-21T17:58:57.801Z,9.83
2022-11-21T18:01:25.482Z,8.90
2022-11-21T18:03:56.706Z,11.40
2022-11-21T18:06:24.788Z,12.07
2022-11-21T18:08:51.701Z,7.63
2022-11-21T18:11:21.440Z,10.73
2022-11-21T18:13:49.437Z,5.97
2022-11-21T18:16:22.270Z,9.00
2022-11-21T18:18:49.724Z,14.10
2022-11-21T18:21:19.375Z,9.97
2022-11-21T18:23:47.151Z,8.90
2022-11-21T18:26:23.231Z,12.33
2022-11-21T18:29:13.093Z,7.70
2022-11-21T18:31:38.063Z,8.60
2022-11-21T18:34:06.769Z,8.87
2022-11-21T18:36:33.646Z,6.13
2022-11-21T18:39:07.259Z,7.13
2022-11-21T18:41:38.867Z,8.03
2022-11-21T18:44:06.717Z,12.83
2022-11-21T18:46:35.899Z,9.03
2022-11-21T18:49:06.519Z,10.63
2022-11-21T18:51:35.048Z,7.73
2022-11-21T18:54:10.509Z,9.83
2022-11-21T18:56:39.042Z,10.50
2022-11-21T18:59:06.534Z,7.40
2022-11-21T19:01:35.546Z,13.80
2022-11-21T19:04:02.366Z,11.87
2022-11-21T19:06:29.420Z,7.77
2022-11-21T19:08:57.691Z,8.77
2022-11-21T19:11:29.710Z,9.57
2022-11-21T19:13:57.589Z,10.83
2022-11-21T19:16:25.973Z,11.20
2022-11-21T19:21:41.616Z,8.17
2022-11-21T19:24:15.076Z,10.03
2022-11-21T19:26:42.350Z,10.40
2022-11-21T19:29:09.833Z,9.27
2022-11-21T19:31:42.628Z,11.70
2022-11-21T19:34:11.339Z,9.33
2022-11-21T19:36:39.394Z,7.27
2022-11-21T19:39:06.003Z,9.00
2022-11-21T19:41:32.569Z,9.30
2022-11-21T19:44:00.538Z,7.00
2022-11-21T19:46:31.347Z,8.17
2022-11-21T19:48:59.327Z,7.60
2022-11-21T19:51:35.630Z,7.63
2022-11-21T19:54:03.496Z,6.03
2022-11-21T19:56:30.140Z,6.90
2022-11-21T19:58:57.401Z,7.10
2022-11-21T20:01:26.168Z,7.20
2022-11-21T20:03:58.529Z,5.40
2022-11-21T20:06:46.523Z,7.17
2022-11-21T20:09:18.748Z,7.67
2022-11-21T20:11:47.277Z,6.03
2022-11-21T20:14:21.092Z,6.20
2022-11-21T20:16:49.362Z,10.53
2022-11-21T20:19:18.127Z,7.13
2022-11-21T20:21:45.742Z,9.70
2022-11-21T20:24:12.778Z,6.13
2022-11-21T20:26:40.519Z,9.43
2022-11-21T20:29:07.174Z,6.40
2022-11-21T20:31:37.085Z,7.40
2022-11-21T20:34:10.097Z,7.87
2022-11-21T20:36:36.836Z,8.47
2022-11-21T20:39:21.883Z,7.10
2022-11-21T20:41:48.674Z,7.77
2022-11-21T20:47:08.383Z,6.10
2022-11-21T20:49:35.182Z,6.77
2022-11-21T20:54:48.360Z,5.87
2022-11-21T20:57:15.699Z,5.67
2022-11-21T20:59:42.972Z,8.97
2022-11-21T21:02:12.341Z,6.73
2022-11-21T21:04:39.300Z,8.83
2022-11-21T21:07:05.943Z,10.17
2022-11-21T21:09:32.581Z,8.50
2022-11-21T21:11:59.177Z,9.07
2022-11-21T21:14:25.752Z,10.93
2022-11-21T21:16:52.366Z,8.70
2022-11-21T21:19:19.455Z,8.80
2022-11-21T21:21:46.102Z,8.10
2022-11-21T21:24:13.931Z,10.40
2022-11-21T21:26:43.936Z,26.27
2022-11-21T21:29:12.819Z,9.80
2022-11-21T21:31:40.238Z,10.50
2022-11-21T21:34:10.080Z,11.00
2022-11-21T21:36:36.835Z,10.27
2022-11-21T21:39:04.128Z,8.77
2022-11-21T21:41:31.767Z,8.00
2022-11-21T21:43:59.448Z,5.87
2022-11-21T21:46:27.861Z,10.00
2022-11-21T21:48:58.178Z,7.13
2022-11-21T21:51:26.765Z,8.00
2022-11-21T21:53:55.184Z,9.73
2022-11-21T21:56:22.806Z,6.33
2022-11-21T21:58:50.119Z,7.23
2022-11-21T22:01:18.103Z,6.30
2022-11-21T22:03:46.235Z,8.53
2022-11-21T22:06:15.805Z,6.73
2022-11-21T22:08:43.484Z,7.87
2022-11-21T22:11:15.697Z,5.33
2022-11-21T22:13:44.468Z,7.23
2022-11-21T22:16:12.597Z,5.80
2022-11-21T22:18:40.536Z,4.50
2022-11-21T22:21:25.464Z,4.80
2022-11-21T22:26:39.031Z,4.07
2022-11-21T22:29:06.415Z,5.07
2022-11-21T22:31:33.291Z,3.50
2022-11-21T22:34:00.516Z,4.63
2022-11-21T22:36:27.181Z,4.17
2022-11-21T22:38:54.977Z,3.17
2022-11-21T22:41:24.055Z,3.53
2022-11-21T22:43:53.411Z,3.37
2022-11-21T22:46:20.542Z,3.90
2022-11-21T22:48:48.110Z,3.90
2022-11-21T22:51:17.956Z,5.37
2022-11-21T22:53:46.515Z,3.57
2022-11-21T22:56:15.127Z,4.97
2022-11-21T22:58:41.763Z,5.23
2022-11-21T23:01:15.671Z,2.63
2022-11-21T23:03:43.762Z,2.77
2022-11-21T23:06:12.563Z,3.30
2022-11-21T23:08:39.907Z,2.30
2022-11-21T23:11:11.859Z,2.73
2022-11-21T23:13:40.318Z,3.63
2022-11-21T23:16:08.126Z,2.60
2022-11-21T23:18:35.282Z,3.00
2022-11-21T23:21:02.966Z,3.43
2022-11-21T23:23:30.540Z,4.00
2022-11-21T23:25:57.144Z,5.20
2022-11-21T23:28:23.735Z,2.97
2022-11-21T23:30:50.705Z,3.20
2022-11-21T23:33:18.572Z,3.73
2022-11-21T23:35:46.238Z,2.90
2022-11-21T23:38:14.611Z,3.70
2022-11-21T23:40:41.445Z,3.40
2022-11-21T23:43:08.137Z,4.33
2022-11-21T23:45:34.774Z,2.53
2022-11-21T23:48:01.334Z,3.30
2022-11-21T23:50:27.943Z,2.77
2022-11-21T23:52:54.529Z,2.60
2022-11-21T23:55:21.182Z,2.23
2022-11-21T23:57:48.882Z,3.00
